Time;durP1;ratioP1;P1;durP2;ratioP2;P2;SDS_P1;SDS_P2;PMS_P1;PMS_P2;Temp;Humidity;BMP_temperature;BMP_pressure;BME280_temperature;BME280_humidity;BME280_pressure;Samples;Min_cycle;Max_cycle;Signal;HPM_P1;HPM_P2
2024/03/03 00:00:04;;;;;;;8.17;4.50;;;13.30;81.00;;;;;;5053939;28;20454;-56
2024/03/03 00:02:30;;;;;;;7.00;5.50;;;13.30;81.20;;;;;;5053730;28;20499;-56
2024/03/03 00:04:57;;;;;;;8.60;6.60;;;13.30;81.60;;;;;;5053909;28;20452;-56
2024/03/03 00:07:24;;;;;;;5.70;5.20;;;13.30;81.90;;;;;;5053447;28;20563;-56
2024/03/03 00:09:51;;;;;;;7.40;5.37;;;13.30;82.10;;;;;;5053701;28;20445;-56
2024/03/03 00:12:19;;;;;;;7.57;6.70;;;13.30;82.20;;;;;;5053751;28;20824;-56
2024/03/03 00:14:45;;;;;;;6.87;6.03;;;13.20;82.00;;;;;;5053352;28;20445;-56
2024/03/03 00:17:13;;;;;;;9.83;7.10;;;13.20;82.00;;;;;;5053359;28;20468;-56
2024/03/03 00:19:41;;;;;;;6.00;5.07;;;13.20;82.30;;;;;;5053853;28;20792;-56
2024/03/03 00:22:08;;;;;;;6.50;5.90;;;13.20;82.60;;;;;;5053532;28;20453;-56
2024/03/03 00:24:34;;;;;;;9.70;5.53;;;13.20;82.80;;;;;;5053344;28;20470;-56
2024/03/03 00:27:01;;;;;;;7.90;6.40;;;13.20;83.80;;;;;;5053591;28;20492;-56
2024/03/03 00:29:29;;;;;;;8.10;5.30;;;13.10;83.10;;;;;;5053365;28;20817;-56
2024/03/03 00:31:56;;;;;;;6.20;5.20;;;13.10;83.40;;;;;;5053409;28;20469;-56
2024/03/03 00:34:23;;;;;;;5.67;5.07;;;13.10;83.70;;;;;;5053315;28;20487;-56
2024/03/03 00:36:50;;;;;;;5.37;4.87;;;13.10;84.10;;;;;;5053194;28;20438;-56
2024/03/03 00:39:17;;;;;;;6.90;5.20;;;13.00;84.60;;;;;;5053256;28;20452;-56
2024/03/03 00:41:44;;;;;;;6.17;5.57;;;13.00;85.10;;;;;;5053410;28;20443;-56
2024/03/03 00:44:11;;;;;;;6.00;5.40;;;12.90;85.50;;;;;;5053162;28;20469;-56
2024/03/03 00:46:39;;;;;;;6.30;5.50;;;12.90;85.80;;;;;;5052850;28;20580;-56
2024/03/03 00:49:06;;;;;;;6.93;5.87;;;12.90;86.00;;;;;;5053243;28;20453;-56
2024/03/03 00:51:32;;;;;;;9.00;5.77;;;12.90;86.20;;;;;;5053196;28;20456;-56
2024/03/03 00:53:59;;;;;;;6.40;5.60;;;12.90;86.40;;;;;;5052475;28;20499;-56
2024/03/03 00:56:26;;;;;;;5.67;5.17;;;12.90;86.60;;;;;;5052742;28;20452;-56
2024/03/03 00:58:53;;;;;;;7.13;5.40;;;12.90;86.70;;;;;;5052617;28;20540;-56
2024/03/03 01:01:20;;;;;;;9.73;6.50;;;12.90;86.80;;;;;;5052751;28;20446;-56
2024/03/03 01:03:48;;;;;;;7.13;5.93;;;12.90;87.10;;;;;;5052932;28;20465;-56
2024/03/03 01:06:15;;;;;;;5.90;5.30;;;12.90;87.30;;;;;;5052659;28;20943;-56
2024/03/03 01:08:42;;;;;;;5.73;5.23;;;12.90;87.50;;;;;;5052914;28;20493;-56
2024/03/03 01:11:08;;;;;;;6.73;5.90;;;12.90;87.60;;;;;;5052914;28;20446;-56
2024/03/03 01:13:35;;;;;;;7.00;5.50;;;12.90;87.80;;;;;;5052383;28;20468;-56
2024/03/03 01:16:02;;;;;;;8.97;6.70;;;12.90;87.80;;;;;;5052982;28;20446;-56
2024/03/03 01:18:29;;;;;;;6.70;6.03;;;12.90;88.00;;;;;;5052575;28;20931;-56
2024/03/03 01:20:58;;;;;;;7.90;5.97;;;12.90;88.10;;;;;;5052895;28;20445;-56
2024/03/03 01:23:25;;;;;;;8.00;6.50;;;12.90;88.20;;;;;;5052482;28;20481;-56
2024/03/03 01:25:51;;;;;;;9.17;7.03;;;12.90;88.50;;;;;;5052785;28;20819;-56
2024/03/03 01:28:18;;;;;;;7.73;6.47;;;12.90;88.70;;;;;;5052680;28;20485;-56
2024/03/03 01:30:45;;;;;;;10.10;6.90;;;12.90;88.90;;;;;;5055765;28;20833;-56
2024/03/03 01:33:12;;;;;;;7.33;6.30;;;12.90;89.00;;;;;;5056579;28;20552;-56
2024/03/03 01:35:38;;;;;;;8.33;5.93;;;12.90;89.10;;;;;;5056643;28;20448;-56
2024/03/03 01:38:07;;;;;;;9.17;7.20;;;12.90;89.20;;;;;;5056608;28;20444;-56
2024/03/03 01:40:33;;;;;;;8.83;6.77;;;12.80;89.30;;;;;;5056198;28;20446;-56
2024/03/03 01:43:04;;;;;;;7.63;6.83;;;12.80;89.50;;;;;;5056063;28;20466;-56
2024/03/03 01:45:31;;;;;;;8.50;6.50;;;12.80;89.60;;;;;;5056494;28;20491;-56
2024/03/03 01:47:58;;;;;;;7.67;6.60;;;12.80;89.70;;;;;;5056241;28;20485;-55
2024/03/03 01:50:26;;;;;;;7.47;6.63;;;12.80;89.70;;;;;;5056245;28;20445;-56
2024/03/03 01:52:55;;;;;;;8.30;6.30;;;12.80;89.80;;;;;;5056201;28;20548;-56
2024/03/03 01:55:24;;;;;;;11.67;6.60;;;12.80;89.90;;;;;;5055734;28;20459;-56
2024/03/03 01:57:54;;;;;;;8.23;7.33;;;12.80;90.00;;;;;;5056212;28;20449;-56
2024/03/03 02:00:21;;;;;;;7.87;6.33;;;12.80;90.10;;;;;;5056242;28;20521;-56
2024/03/03 02:02:48;;;;;;;15.53;8.63;;;12.80;90.20;;;;;;5055952;28;20469;-56
2024/03/03 02:05:15;;;;;;;8.23;6.93;;;12.80;90.20;;;;;;5056114;28;20476;-56
2024/03/03 02:07:42;;;;;;;7.37;6.77;;;12.70;90.20;;;;;;5055885;28;20491;-56
2024/03/03 02:10:10;;;;;;;7.40;6.67;;;12.70;90.30;;;;;;5056004;28;20442;-56
2024/03/03 02:12:40;;;;;;;9.40;6.50;;;12.70;90.30;;;;;;5055595;28;20882;-56
2024/03/03 02:15:08;;;;;;;8.60;7.40;;;12.70;90.40;;;;;;5055837;28;20450;-56
2024/03/03 02:17:35;;;;;;;7.80;7.00;;;12.70;90.40;;;;;;5055892;28;20524;-56
2024/03/03 02:20:04;;;;;;;8.10;7.23;;;12.70;90.50;;;;;;5055804;28;20452;-56
2024/03/03 02:22:32;;;;;;;11.60;8.70;;;12.70;90.50;;;;;;5055836;28;20480;-56
2024/03/03 02:24:59;;;;;;;9.23;7.33;;;12.70;90.60;;;;;;5055879;28;20503;-56
2024/03/03 02:27:26;;;;;;;10.90;7.70;;;12.70;90.60;;;;;;5055913;28;20477;-56
2024/03/03 02:29:54;;;;;;;9.77;8.30;;;12.70;90.70;;;;;;5055386;28;20935;-56
2024/03/03 02:32:20;;;;;;;9.37;7.77;;;12.70;90.80;;;;;;5055214;28;20445;-56
2024/03/03 02:34:47;;;;;;;7.37;6.30;;;12.70;90.90;;;;;;5055553;28;20452;-56
2024/03/03 02:37:14;;;;;;;9.00;6.60;;;12.70;90.90;;;;;;5055320;28;20458;-56
2024/03/03 02:39:42;;;;;;;8.03;7.10;;;12.70;90.90;;;;;;5055391;28;20441;-56
2024/03/03 02:42:09;;;;;;;9.90;7.67;;;12.60;91.00;;;;;;5055157;28;20441;-56
2024/03/03 02:44:36;;;;;;;9.53;7.80;;;12.60;91.20;;;;;;5055063;28;20461;-56
2024/03/03 02:47:03;;;;;;;8.27;7.47;;;12.60;91.30;;;;;;5054958;28;20956;-56
2024/03/03 02:49:30;;;;;;;9.40;7.43;;;12.50;91.40;;;;;;5055425;28;20446;-56
2024/03/03 02:51:56;;;;;;;8.23;7.43;;;12.60;91.50;;;;;;5056263;28;20819;-56
2024/03/03 02:54:23;;;;;;;8.53;6.97;;;12.50;91.50;;;;;;5055279;28;20473;-56
2024/03/03 02:56:51;;;;;;;12.27;8.30;;;12.50;91.60;;;;;;5055522;28;20437;-56
2024/03/03 02:59:18;;;;;;;8.13;6.53;;;12.50;91.50;;;;;;5055209;28;20473;-56
2024/03/03 03:01:45;;;;;;;9.50;7.43;;;12.50;91.60;;;;;;5055074;28;20437;-56
2024/03/03 03:04:12;;;;;;;9.20;7.77;;;12.50;91.60;;;;;;5055018;28;20468;-56
2024/03/03 03:06:38;;;;;;;12.90;8.80;;;12.50;91.60;;;;;;5055199;28;20448;-56
2024/03/03 03:09:05;;;;;;;8.40;7.47;;;12.50;91.60;;;;;;5054522;28;20483;-56
2024/03/03 03:11:32;;;;;;;8.10;7.30;;;12.50;91.60;;;;;;5054882;28;20481;-56
2024/03/03 03:14:00;;;;;;;7.50;6.13;;;12.50;91.60;;;;;;5054332;28;20469;-56
2024/03/03 03:16:27;;;;;;;31.50;8.80;;;12.50;91.60;;;;;;5054815;28;20532;-56
2024/03/03 03:18:54;;;;;;;7.10;6.40;;;12.50;91.50;;;;;;5054657;28;20448;-56
2024/03/03 03:21:21;;;;;;;9.50;7.30;;;12.50;91.60;;;;;;5054786;28;20437;-56
2024/03/03 03:23:48;;;;;;;8.83;7.93;;;12.50;91.70;;;;;;5054449;28;20834;-56
2024/03/03 03:26:14;;;;;;;7.30;6.03;;;12.50;91.70;;;;;;5054512;28;20454;-56
2024/03/03 03:28:41;;;;;;;16.87;8.17;;;12.50;91.70;;;;;;5054522;28;20477;-56
2024/03/03 03:31:08;;;;;;;8.87;7.17;;;12.50;91.70;;;;;;5054271;28;20461;-56
2024/03/03 03:33:35;;;;;;;11.63;7.00;;;12.50;91.80;;;;;;5054367;28;20469;-56
2024/03/03 03:36:02;;;;;;;8.67;6.80;;;12.50;91.70;;;;;;5054449;28;20448;-56
2024/03/03 03:38:29;;;;;;;10.23;7.40;;;12.50;91.80;;;;;;5054484;28;20525;-56
2024/03/03 03:40:56;;;;;;;7.33;6.53;;;12.40;91.70;;;;;;5054321;28;20441;-56
2024/03/03 03:43:23;;;;;;;8.17;6.27;;;12.40;91.80;;;;;;5054177;28;20480;-56
2024/03/03 03:45:49;;;;;;;7.63;6.83;;;12.40;91.80;;;;;;5054358;28;20437;-56
2024/03/03 03:48:17;;;;;;;10.43;7.40;;;12.40;91.90;;;;;;5054012;28;20477;-56
2024/03/03 03:50:44;;;;;;;8.70;6.93;;;12.40;92.00;;;;;;5054072;28;20457;-56
2024/03/03 03:53:11;;;;;;;11.83;7.13;;;12.40;91.80;;;;;;5053346;28;20830;-56
2024/03/03 03:55:38;;;;;;;8.10;6.53;;;12.40;91.70;;;;;;5053655;28;20970;-56
2024/03/03 03:58:05;;;;;;;7.37;6.53;;;12.40;91.60;;;;;;5053974;28;20467;-56
2024/03/03 04:00:32;;;;;;;7.80;7.00;;;12.30;91.60;;;;;;5053932;28;20468;-56
2024/03/03 04:02:59;;;;;;;8.47;6.60;;;12.30;91.70;;;;;;5053908;28;20466;-56
2024/03/03 04:05:27;;;;;;;6.07;5.47;;;12.30;91.70;;;;;;5053606;28;20452;-56
2024/03/03 04:07:54;;;;;;;8.00;6.50;;;12.30;91.80;;;;;;5053246;28;21077;-56
2024/03/03 04:10:21;;;;;;;8.83;7.60;;;12.20;91.90;;;;;;5053682;28;20468;-56
2024/03/03 04:12:47;;;;;;;7.60;6.40;;;12.30;92.00;;;;;;5053562;28;20508;-56
2024/03/03 04:15:15;;;;;;;10.53;7.37;;;12.30;91.70;;;;;;5053326;28;20970;-56
2024/03/03 04:17:42;;;;;;;8.77;7.53;;;12.20;91.70;;;;;;5053338;28;20441;-56
2024/03/03 04:20:10;;;;;;;8.20;6.60;;;12.20;91.70;;;;;;5053533;28;20450;-56
2024/03/03 04:22:38;;;;;;;8.13;6.90;;;12.20;91.80;;;;;;5053318;28;20440;-56
2024/03/03 04:25:06;;;;;;;8.23;6.97;;;12.10;91.80;;;;;;5053652;28;20816;-56
2024/03/03 04:27:33;;;;;;;9.40;7.80;;;12.10;92.00;;;;;;5053147;28;20454;-56
2024/03/03 04:30:00;;;;;;;9.73;7.10;;;12.10;91.80;;;;;;5053380;28;20449;-56
2024/03/03 04:32:27;;;;;;;11.13;7.67;;;12.10;92.10;;;;;;5053210;28;20488;-56
2024/03/03 04:34:53;;;;;;;10.80;7.57;;;12.10;92.20;;;;;;5053380;28;20448;-56
2024/03/03 04:37:20;;;;;;;8.57;7.27;;;12.10;92.40;;;;;;5052953;28;20446;-56
2024/03/03 04:39:48;;;;;;;9.40;7.60;;;12.10;92.60;;;;;;5052962;28;20940;-56
2024/03/03 04:42:15;;;;;;;9.13;7.13;;;12.10;92.70;;;;;;5053261;28;20442;-56
2024/03/03 04:44:42;;;;;;;11.10;8.27;;;12.10;92.70;;;;;;5053162;28;20832;-56
2024/03/03 04:47:10;;;;;;;10.50;8.43;;;12.10;92.70;;;;;;5052780;28;20476;-56
2024/03/03 04:49:39;;;;;;;9.57;7.93;;;12.10;92.90;;;;;;5052694;28;20487;-56
2024/03/03 04:52:06;;;;;;;10.10;7.87;;;12.10;92.90;;;;;;5053222;28;20452;-56
2024/03/03 04:54:33;;;;;;;11.80;8.53;;;12.20;93.00;;;;;;5052914;28;20469;-56
2024/03/03 04:57:02;;;;;;;13.50;9.30;;;12.20;93.00;;;;;;5053139;28;20452;-56
2024/03/03 04:59:30;;;;;;;9.30;8.00;;;12.20;93.10;;;;;;5052817;28;20933;-56
2024/03/03 05:01:57;;;;;;;10.30;7.73;;;12.20;93.10;;;;;;5052728;28;20936;-56
2024/03/03 05:04:26;;;;;;;11.13;7.93;;;12.20;93.20;;;;;;5053891;28;20468;-56
2024/03/03 05:06:53;;;;;;;10.83;8.43;;;12.20;93.10;;;;;;5057036;28;20437;-56
2024/03/03 05:09:20;;;;;;;12.27;9.17;;;12.20;93.10;;;;;;5056685;28;20477;-56
2024/03/03 05:11:47;;;;;;;9.20;8.10;;;12.20;93.20;;;;;;5056673;28;20818;-56
2024/03/03 05:14:16;;;;;;;10.37;8.37;;;12.20;93.20;;;;;;5056964;28;20473;-56
2024/03/03 05:16:42;;;;;;;13.10;9.30;;;12.20;93.30;;;;;;5056914;28;20441;-56
2024/03/03 05:19:09;;;;;;;11.23;8.67;;;12.20;93.40;;;;;;5056917;28;20452;-56
2024/03/03 05:21:36;;;;;;;12.63;9.40;;;12.20;93.40;;;;;;5056506;28;20951;-56
2024/03/03 05:24:03;;;;;;;11.40;9.13;;;12.20;93.40;;;;;;5056791;28;20878;-56
2024/03/03 05:26:30;;;;;;;10.20;8.80;;;12.20;93.40;;;;;;5056739;28;20511;-56
2024/03/03 05:28:58;;;;;;;9.97;8.37;;;12.20;93.50;;;;;;5056520;28;20487;-56
2024/03/03 05:31:31;;;;;;;15.90;9.17;;;12.20;93.50;;;;;;5056623;28;20532;-56
2024/03/03 05:33:58;;;;;;;13.00;8.80;;;12.10;93.60;;;;;;5056540;28;20479;-56
2024/03/03 05:36:25;;;;;;;13.73;8.43;;;12.20;94.10;;;;;;5056547;28;20441;-56
2024/03/03 05:38:52;;;;;;;10.47;8.23;;;12.20;93.80;;;;;;5056351;28;20442;-56
2024/03/03 05:41:18;;;;;;;8.90;8.00;;;12.10;93.90;;;;;;5056453;28;20878;-56
2024/03/03 05:43:45;;;;;;;13.03;10.17;;;12.10;93.90;;;;;;5056277;28;20465;-56
2024/03/03 05:46:12;;;;;;;11.40;9.10;;;12.10;94.00;;;;;;5056051;28;20449;-56
2024/03/03 05:48:40;;;;;;;10.97;8.37;;;12.10;93.90;;;;;;5055858;28;21028;-56
2024/03/03 05:51:07;;;;;;;13.17;9.93;;;12.10;93.90;;;;;;5056149;28;20447;-56
2024/03/03 05:53:34;;;;;;;14.87;9.07;;;12.10;94.00;;;;;;5056088;28;20473;-56
2024/03/03 05:56:00;;;;;;;12.03;9.23;;;12.10;94.20;;;;;;5056208;28;20443;-56
2024/03/03 05:58:27;;;;;;;13.17;8.80;;;12.10;94.30;;;;;;5056924;28;20456;-56
2024/03/03 06:00:54;;;;;;;11.20;9.50;;;12.00;94.40;;;;;;5055792;28;20960;-56
2024/03/03 06:03:21;;;;;;;13.73;9.73;;;12.00;94.50;;;;;;5056085;28;20491;-56
2024/03/03 06:05:49;;;;;;;14.93;11.10;;;12.00;94.60;;;;;;5056009;28;20441;-56
2024/03/03 06:08:16;;;;;;;15.77;11.77;;;12.00;94.70;;;;;;5055863;28;20482;-56
2024/03/03 06:10:43;;;;;;;12.93;9.83;;;12.00;94.80;;;;;;5055986;28;20446;-56
2024/03/03 06:13:09;;;;;;;14.77;11.30;;;12.00;94.80;;;;;;5057608;28;20538;-56
2024/03/03 06:15:36;;;;;;;14.53;11.03;;;12.00;94.90;;;;;;5056031;28;20452;-56
2024/03/03 06:18:04;;;;;;;14.07;11.20;;;12.10;94.90;;;;;;5056150;28;20524;-56
2024/03/03 06:20:31;;;;;;;12.50;10.77;;;12.10;94.90;;;;;;5056074;28;20515;-56
2024/03/03 06:22:59;;;;;;;15.53;11.20;;;12.00;94.90;;;;;;5055868;28;20517;-56
2024/03/03 06:25:26;;;;;;;14.20;10.57;;;12.00;95.00;;;;;;5055640;28;20449;-56
2024/03/03 06:27:53;;;;;;;14.43;10.93;;;12.00;95.10;;;;;;5055580;28;20450;-56
2024/03/03 06:30:19;;;;;;;13.40;10.40;;;12.00;95.10;;;;;;5055203;28;20477;-56
2024/03/03 06:32:46;;;;;;;14.60;10.70;;;12.00;95.10;;;;;;5055488;28;20461;-56
2024/03/03 06:35:13;;;;;;;12.07;9.47;;;12.00;95.30;;;;;;5055877;28;20442;-56
2024/03/03 06:37:40;;;;;;;14.00;11.53;;;12.00;95.30;;;;;;5055732;28;20442;-56
2024/03/03 06:40:09;;;;;;;13.17;10.60;;;12.00;95.30;;;;;;5055196;28;20810;-56
2024/03/03 06:42:36;;;;;;;13.43;10.70;;;12.00;95.40;;;;;;5055436;28;20446;-56
2024/03/03 06:45:03;;;;;;;13.70;10.40;;;12.00;95.30;;;;;;5055426;28;20476;-56
2024/03/03 06:47:32;;;;;;;13.53;11.57;;;12.00;95.40;;;;;;5054883;28;20948;-56
2024/03/03 06:49:59;;;;;;;12.90;9.87;;;12.00;95.40;;;;;;5055192;28;20477;-56
2024/03/03 06:52:26;;;;;;;12.17;9.90;;;12.10;95.50;;;;;;5055144;28;20456;-57
2024/03/03 06:54:53;;;;;;;13.60;10.23;;;12.10;95.40;;;;;;5054909;28;20461;-56
2024/03/03 06:57:21;;;;;;;14.17;10.70;;;12.10;95.40;;;;;;5055134;28;20450;-56
2024/03/03 06:59:48;;;;;;;15.60;10.33;;;12.10;95.10;;;;;;5054943;28;20824;-56
2024/03/03 07:02:15;;;;;;;11.67;10.00;;;12.10;95.10;;;;;;5054807;28;20890;-56
2024/03/03 07:04:42;;;;;;;14.43;10.43;;;12.10;95.10;;;;;;5054980;28;20556;-56
2024/03/03 07:07:09;;;;;;;11.03;9.83;;;12.20;95.10;;;;;;5054912;28;20442;-56
2024/03/03 07:09:36;;;;;;;14.63;10.70;;;12.10;95.00;;;;;;5054705;28;20488;-56
2024/03/03 07:12:04;;;;;;;11.73;9.03;;;12.20;94.70;;;;;;5055032;28;20449;-56
2024/03/03 07:14:32;;;;;;;12.57;10.47;;;12.20;94.60;;;;;;5054527;28;20488;-56
2024/03/03 07:16:59;;;;;;;14.97;10.10;;;12.20;94.60;;;;;;5054756;28;20437;-56
2024/03/03 07:19:26;;;;;;;13.30;10.67;;;12.20;94.60;;;;;;5054825;28;20463;-55
2024/03/03 07:21:53;;;;;;;13.93;10.10;;;12.20;94.80;;;;;;5054692;28;20473;-55
2024/03/03 07:24:20;;;;;;;15.20;11.47;;;12.20;94.90;;;;;;5054072;28;20471;-55
2024/03/03 07:26:47;;;;;;;12.67;10.07;;;12.10;95.00;;;;;;5053599;28;20963;-55
2024/03/03 07:29:14;;;;;;;14.70;10.60;;;12.20;95.10;;;;;;5054357;28;20527;-54
2024/03/03 07:31:42;;;;;;;14.07;11.57;;;12.20;95.10;;;;;;5054056;28;20453;-55
2024/03/03 07:34:08;;;;;;;13.00;10.60;;;12.20;95.10;;;;;;5054044;28;20846;-55
2024/03/03 07:36:35;;;;;;;13.17;10.60;;;12.20;95.10;;;;;;5054323;28;20437;-55
2024/03/03 07:39:02;;;;;;;13.13;9.90;;;12.20;95.10;;;;;;5054261;28;20441;-55
2024/03/03 07:41:29;;;;;;;10.70;9.33;;;12.30;95.20;;;;;;5053870;28;20481;-55
2024/03/03 07:43:56;;;;;;;13.10;10.97;;;12.20;95.10;;;;;;5053842;28;21004;-55
2024/03/03 07:46:22;;;;;;;13.00;10.50;;;12.30;95.10;;;;;;5054123;28;20476;-55
2024/03/03 07:48:52;;;;;;;14.77;10.70;;;12.40;95.20;;;;;;5054037;28;20489;-55
2024/03/03 07:51:21;;;;;;;14.03;10.37;;;12.40;95.20;;;;;;5054011;28;20449;-55
2024/03/03 07:53:48;;;;;;;13.53;11.60;;;12.50;95.10;;;;;;5053562;28;21049;-56
2024/03/03 07:56:15;;;;;;;13.17;10.37;;;12.50;94.90;;;;;;5054003;28;20472;-55
2024/03/03 07:58:42;;;;;;;15.07;10.63;;;12.60;94.90;;;;;;5053976;28;20466;-55
2024/03/03 08:01:09;;;;;;;11.83;10.10;;;12.70;94.80;;;;;;5053882;28;20445;-55
2024/03/03 08:03:36;;;;;;;13.50;10.77;;;12.70;94.60;;;;;;5053713;28;20464;-55
2024/03/03 08:06:05;;;;;;;12.57;10.00;;;12.80;94.40;;;;;;5053545;28;20452;-55
2024/03/03 08:08:32;;;;;;;13.93;11.03;;;12.90;94.30;;;;;;5053639;28;20437;-55
2024/03/03 08:10:59;;;;;;;13.67;11.03;;;13.00;94.30;;;;;;5053345;28;20449;-55
2024/03/03 08:13:26;;;;;;;14.13;10.80;;;13.00;94.10;;;;;;5053705;28;20480;-55
2024/03/03 08:15:53;;;;;;;17.67;12.73;;;13.10;93.90;;;;;;5053314;28;20449;-55
2024/03/03 08:18:20;;;;;;;17.63;13.00;;;13.10;93.70;;;;;;5053248;28;20936;-55
2024/03/03 08:20:47;;;;;;;18.37;13.20;;;13.20;93.70;;;;;;5053332;28;20940;-55
2024/03/03 08:23:16;;;;;;;18.17;11.70;;;13.30;93.60;;;;;;5053414;28;20826;-55
2024/03/03 08:25:43;;;;;;;13.00;11.50;;;13.40;93.40;;;;;;5053563;28;20450;-55
2024/03/03 08:28:10;;;;;;;13.90;10.20;;;13.50;93.20;;;;;;5053478;28;20444;-55
2024/03/03 08:30:37;;;;;;;14.37;10.53;;;13.60;92.80;;;;;;5053102;28;21011;-56
2024/03/03 08:33:04;;;;;;;14.03;9.57;;;13.70;92.60;;;;;;5053356;28;20461;-56
2024/03/03 08:35:30;;;;;;;13.30;10.60;;;13.80;92.40;;;;;;5053573;28;20496;-55
2024/03/03 08:37:57;;;;;;;11.30;9.77;;;13.90;92.20;;;;;;5052952;28;20947;-55
2024/03/03 08:40:25;;;;;;;10.93;9.63;;;14.00;92.10;;;;;;5053151;28;20928;-55
2024/03/03 08:42:52;;;;;;;13.20;9.93;;;14.10;91.90;;;;;;5054184;28;20832;-56
2024/03/03 08:45:19;;;;;;;11.30;10.00;;;14.20;91.70;;;;;;5053262;28;20448;-55
2024/03/03 08:47:46;;;;;;;12.97;10.80;;;14.30;91.50;;;;;;5053287;28;20445;-55
2024/03/03 08:50:14;;;;;;;13.87;11.37;;;14.40;91.20;;;;;;5053125;28;20520;-55
2024/03/03 08:52:41;;;;;;;13.73;10.23;;;14.40;91.20;;;;;;5053156;28;20548;-55
2024/03/03 08:55:08;;;;;;;13.70;10.60;;;14.40;90.60;;;;;;5052866;28;20460;-55
2024/03/03 08:57:36;;;;;;;13.33;9.70;;;14.40;90.20;;;;;;5052892;28;20823;-55
2024/03/03 09:00:04;;;;;;;13.40;10.97;;;14.40;90.20;;;;;;5053145;28;20437;-55
2024/03/03 09:02:31;;;;;;;15.10;11.30;;;14.50;90.40;;;;;;5053093;28;20468;-56
2024/03/03 09:05:00;;;;;;;13.53;10.80;;;14.50;90.20;;;;;;5053083;28;20456;-55
2024/03/03 09:07:26;;;;;;;14.37;11.57;;;14.50;90.00;;;;;;5052839;28;20453;-55
2024/03/03 09:09:53;;;;;;;17.17;11.40;;;14.50;89.20;;;;;;5052880;28;20572;-56
2024/03/03 09:12:20;;;;;;;13.50;10.80;;;14.60;89.40;;;;;;5052547;28;20445;-55
2024/03/03 09:14:48;;;;;;;13.60;12.07;;;14.60;89.50;;;;;;5052990;28;20493;-55
2024/03/03 09:17:15;;;;;;;12.30;10.50;;;14.70;89.00;;;;;;5053022;28;20446;-55
2024/03/03 09:19:42;;;;;;;11.60;10.40;;;14.70;88.50;;;;;;5053084;28;20484;-55
2024/03/03 09:22:08;;;;;;;14.93;11.80;;;14.70;88.90;;;;;;5053330;28;20529;-55
2024/03/03 09:24:35;;;;;;;15.20;11.83;;;14.80;89.10;;;;;;5053103;28;20468;-55
2024/03/03 09:27:02;;;;;;;12.70;10.47;;;14.90;88.90;;;;;;5053285;28;20478;-55
2024/03/03 09:29:29;;;;;;;15.80;10.67;;;14.90;88.60;;;;;;5053509;28;20484;-55
2024/03/03 09:31:58;;;;;;;14.10;11.23;;;15.00;87.60;;;;;;5053390;28;21010;-56
2024/03/03 09:34:24;;;;;;;12.10;10.67;;;15.10;86.60;;;;;;5052903;28;21006;-55
2024/03/03 09:36:51;;;;;;;12.80;11.20;;;15.10;86.70;;;;;;5053234;28;20818;-56
2024/03/03 09:39:18;;;;;;;12.70;10.10;;;15.10;87.20;;;;;;5053076;28;20446;-55
2024/03/03 09:41:46;;;;;;;15.70;11.20;;;15.10;87.20;;;;;;5053357;28;20448;-55
2024/03/03 09:44:16;;;;;;;12.90;10.87;;;15.10;87.30;;;;;;5052895;28;20923;-55
2024/03/03 09:46:44;;;;;;;13.90;11.10;;;15.20;87.20;;;;;;5053259;28;20428;-55
2024/03/03 09:49:16;;;;;;;15.23;11.00;;;15.20;86.70;;;;;;5053191;28;20445;-55
2024/03/03 09:51:45;;;;;;;12.80;10.53;;;15.30;87.00;;;;;;5055960;28;20532;-55
2024/03/03 09:54:14;;;;;;;14.03;11.57;;;15.40;87.90;;;;;;5056252;28;20499;-55
2024/03/03 09:56:44;;;;;;;13.33;11.40;;;15.60;87.20;;;;;;5056272;28;20959;-55
2024/03/03 09:59:12;;;;;;;11.97;10.00;;;15.70;86.70;;;;;;5056040;28;20453;-55
2024/03/03 10:01:40;;;;;;;11.37;10.10;;;15.90;86.30;;;;;;5056109;28;20445;-55
2024/03/03 10:04:08;;;;;;;14.47;11.93;;;16.20;86.00;;;;;;5055961;28;20990;-55
2024/03/03 10:06:38;;;;;;;13.57;10.53;;;16.40;85.30;;;;;;5056513;28;20461;-56
2024/03/03 10:09:09;;;;;;;13.30;10.83;;;16.70;85.00;;;;;;5056227;28;20434;-55
2024/03/03 10:11:37;;;;;;;16.67;12.23;;;16.90;83.80;;;;;;5056003;28;20518;-55
2024/03/03 10:14:04;;;;;;;14.13;10.20;;;17.10;82.80;;;;;;5055761;28;21105;-55
2024/03/03 10:16:33;;;;;;;13.73;11.13;;;17.30;80.00;;;;;;5056279;28;20441;-55
2024/03/03 10:19:00;;;;;;;12.00;10.33;;;17.30;79.60;;;;;;5055863;28;20445;-55
2024/03/03 10:21:29;;;;;;;13.73;11.03;;;17.50;79.00;;;;;;5056253;28;20448;-55
2024/03/03 10:24:25;;;;;;;13.47;11.10;;;17.60;78.00;;;;;;5056061;28;20465;-56
2024/03/03 10:26:54;;;;;;;12.43;10.20;;;17.80;77.80;;;;;;5055518;28;20820;-56
2024/03/03 10:29:21;;;;;;;11.77;10.30;;;18.00;77.20;;;;;;5055507;28;20441;-55
2024/03/03 10:31:49;;;;;;;11.17;9.97;;;18.00;76.00;;;;;;5055707;28;20442;-55
2024/03/03 10:34:16;;;;;;;12.83;10.87;;;18.00;75.70;;;;;;5055139;28;20853;-55
2024/03/03 10:36:43;;;;;;;11.33;9.60;;;18.00;74.70;;;;;;5055550;28;20464;-57
2024/03/03 10:39:11;;;;;;;12.50;11.23;;;18.00;75.20;;;;;;5055282;28;21015;-55
2024/03/03 10:41:39;;;;;;;13.37;11.97;;;18.00;75.30;;;;;;5055348;28;20442;-55
2024/03/03 10:44:08;;;;;;;13.43;11.17;;;18.00;74.80;;;;;;5054952;28;21050;-56
2024/03/03 10:46:35;;;;;;;14.40;10.80;;;18.10;74.70;;;;;;5055316;28;20445;-56
2024/03/03 10:49:02;;;;;;;13.03;11.10;;;18.20;74.60;;;;;;5055262;28;20449;-55
2024/03/03 10:51:29;;;;;;;13.93;11.50;;;18.40;74.20;;;;;;5055120;28;20488;-55
2024/03/03 10:53:59;;;;;;;11.67;10.30;;;18.70;73.40;;;;;;5054820;28;20485;-55
2024/03/03 10:56:27;;;;;;;13.10;10.53;;;19.30;72.90;;;;;;5055189;28;20468;-56
2024/03/03 10:58:56;;;;;;;11.07;9.90;;;19.80;69.50;;;;;;5055114;28;20446;-55
2024/03/03 11:01:22;;;;;;;11.70;10.50;;;20.10;67.60;;;;;;5054470;28;20438;-55
2024/03/03 11:03:52;;;;;;;13.33;11.43;;;20.40;66.50;;;;;;5054053;28;20979;-56
2024/03/03 11:06:19;;;;;;;11.90;10.60;;;20.70;65.10;;;;;;5054912;28;20446;-55
2024/03/03 11:08:51;;;;;;;13.27;11.87;;;21.00;63.70;;;;;;5054963;28;20441;-56
2024/03/03 11:11:22;;;;;;;12.43;10.63;;;21.50;61.90;;;;;;5054148;28;20820;-55
2024/03/03 11:13:52;;;;;;;12.20;10.80;;;21.90;59.10;;;;;;5054644;28;20464;-56
2024/03/03 11:16:23;;;;;;;13.03;11.60;;;22.00;58.10;;;;;;5054697;28;20517;-56
2024/03/03 11:18:50;;;;;;;12.63;10.90;;;21.90;57.60;;;;;;5054416;28;20899;-56
2024/03/03 11:21:27;;;;;;;12.10;10.00;;;22.30;58.50;;;;;;5054624;28;20442;-56
2024/03/03 11:23:59;;;;;;;14.00;12.57;;;23.00;56.90;;;;;;5054713;28;20461;-55
2024/03/03 11:26:31;;;;;;;13.37;11.97;;;23.50;54.70;;;;;;5054397;28;20434;-56
2024/03/03 11:28:59;;;;;;;11.87;10.77;;;24.00;54.10;;;;;;5054209;28;21010;-56
2024/03/03 11:31:28;;;;;;;11.87;10.50;;;24.80;52.30;;;;;;5054084;28;20484;-56
2024/03/03 11:33:56;;;;;;;13.97;12.60;;;25.40;49.00;;;;;;5054111;28;20461;-56
2024/03/03 11:36:26;;;;;;;12.30;11.10;;;25.40;48.00;;;;;;5054384;28;20443;-56
2024/03/03 11:38:53;;;;;;;12.83;11.50;;;25.30;47.90;;;;;;5054294;28;20507;-56
2024/03/03 11:41:20;;;;;;;14.07;12.67;;;25.20;48.10;;;;;;5054295;28;20445;-56
2024/03/03 11:43:48;;;;;;;12.67;11.47;;;25.40;47.90;;;;;;5054505;28;20470;-56
2024/03/03 11:46:49;;;;;;;14.00;12.70;;;25.70;47.10;;;;;;5054170;28;20453;-56
2024/03/03 11:49:19;;;;;;;13.93;12.47;;;26.20;44.90;;;;;;5054126;28;20425;-56
2024/03/03 11:51:46;;;;;;;13.83;12.43;;;26.60;43.40;;;;;;5053982;28;20480;-56
2024/03/03 11:54:14;;;;;;;13.63;12.40;;;26.90;42.10;;;;;;5053652;28;20481;-56
2024/03/03 11:56:51;;;;;;;13.30;12.10;;;27.40;41.90;;;;;;5053926;28;20817;-56
2024/03/03 11:59:17;;;;;;;14.43;12.90;;;27.80;40.20;;;;;;5054024;28;20426;-56
2024/03/03 12:01:47;;;;;;;13.70;12.40;;;28.20;38.50;;;;;;5053631;28;20444;-56
2024/03/03 12:04:16;;;;;;;15.23;13.73;;;28.40;37.60;;;;;;5053864;28;20519;-56
2024/03/03 12:06:45;;;;;;;13.63;12.33;;;28.70;37.70;;;;;;5053854;28;20449;-58
2024/03/03 12:09:15;;;;;;;12.87;11.57;;;29.00;37.20;;;;;;5053720;28;20445;-56
2024/03/03 12:11:43;;;;;;;13.83;12.47;;;29.50;37.20;;;;;;5053557;28;20512;-56
2024/03/03 12:14:10;;;;;;;14.53;13.23;;;30.00;35.50;;;;;;5052897;28;20475;-56
2024/03/03 12:16:36;;;;;;;15.10;13.80;;;30.30;35.20;;;;;;5053401;28;20808;-56
2024/03/03 12:19:03;;;;;;;13.57;12.17;;;30.60;33.50;;;;;;5053701;28;20810;-56
2024/03/03 12:21:32;;;;;;;12.07;10.87;;;30.70;32.30;;;;;;5053622;28;20441;-56
2024/03/03 12:23:59;;;;;;;11.77;10.77;;;30.80;32.50;;;;;;5053167;28;20983;-56
2024/03/03 12:26:26;;;;;;;11.73;10.03;;;31.00;32.90;;;;;;5053464;28;20441;-56
2024/03/03 12:28:53;;;;;;;11.37;10.37;;;31.30;32.20;;;;;;5053526;28;20445;-54
2024/03/03 12:31:22;;;;;;;11.20;10.30;;;31.60;31.30;;;;;;5053359;28;20481;-54
2024/03/03 12:33:49;;;;;;;9.90;8.90;;;32.00;30.00;;;;;;5053452;28;20518;-54
2024/03/03 12:36:16;;;;;;;9.73;8.57;;;32.20;30.00;;;;;;5053027;28;20481;-56